createdAt,value
2023-04-13T00:01:38.183Z,10.20
2023-04-13T00:04:05.728Z,10.30
2023-04-13T00:06:38.866Z,10.20
2023-04-13T00:09:08.134Z,10.20
2023-04-13T00:11:35.201Z,10.30
2023-04-13T00:14:04.810Z,10.30
2023-04-13T00:16:32.420Z,10.30
2023-04-13T00:19:02.193Z,10.30
2023-04-13T00:21:29.349Z,10.30
2023-04-13T00:23:59.375Z,10.30
2023-04-13T00:26:26.690Z,10.30
2023-04-13T00:28:56.037Z,10.30
2023-04-13T00:31:25.928Z,10.30
2023-04-13T00:33:55.763Z,10.30
2023-04-13T00:36:27.794Z,10.30
2023-04-13T00:38:57.272Z,10.20
2023-04-13T00:41:27.806Z,10.20
2023-04-13T00:43:58.436Z,10.30
2023-04-13T00:46:26.394Z,10.30
2023-04-13T00:48:58.240Z,10.30
2023-04-13T00:51:30.299Z,10.30
2023-04-13T00:54:02.293Z,10.30
2023-04-13T00:56:29.438Z,10.30
2023-04-13T00:59:00.724Z,10.30
2023-04-13T01:01:30.446Z,10.30
2023-04-13T01:04:00.233Z,10.20
2023-04-13T01:06:43.612Z,10.20
2023-04-13T01:09:20.810Z,10.20
2023-04-13T01:11:55.021Z,10.20
2023-04-13T01:14:24.377Z,10.20
2023-04-13T01:16:57.305Z,10.20
2023-04-13T01:19:56.743Z,10.20
2023-04-13T01:22:29.909Z,10.20
2023-04-13T01:25:36.045Z,10.10
2023-04-13T01:28:22.262Z,10.10
2023-04-13T01:30:53.884Z,10.10
2023-04-13T01:33:22.431Z,10.10
2023-04-13T01:35:55.260Z,10.10
2023-04-13T01:38:26.300Z,10.10
2023-04-13T01:40:56.336Z,10.10
2023-04-13T01:43:27.653Z,10.10
2023-04-13T01:46:00.889Z,10.10
2023-04-13T01:48:48.801Z,10.20
2023-04-13T01:51:20.448Z,10.10
2023-04-13T01:54:12.517Z,10.10
2023-04-13T01:56:44.792Z,10.00
2023-04-13T01:59:16.605Z,10.00
2023-04-13T02:01:46.542Z,10.00
2023-04-13T02:04:18.610Z,10.00
2023-04-13T02:06:52.823Z,10.00
2023-04-13T02:09:20.082Z,10.00
2023-04-13T02:11:49.979Z,10.00
2023-04-13T02:14:21.676Z,10.00
2023-04-13T02:16:49.016Z,10.00
2023-04-13T02:19:21.893Z,10.00
2023-04-13T02:21:51.800Z,10.10
2023-04-13T02:24:18.917Z,10.10
2023-04-13T02:26:46.173Z,10.10
2023-04-13T02:29:13.235Z,10.10
2023-04-13T02:31:44.231Z,10.10
2023-04-13T02:34:13.532Z,10.10
2023-04-13T02:36:46.433Z,10.10
2023-04-13T02:39:18.339Z,10.10
2023-04-13T02:41:50.172Z,10.10
2023-04-13T02:44:19.895Z,10.10
2023-04-13T02:46:52.539Z,10.10
2023-04-13T02:49:19.719Z,10.10
2023-04-13T02:51:49.066Z,10.10
2023-04-13T02:54:16.789Z,10.00
2023-04-13T02:56:44.930Z,10.00
2023-04-13T02:59:14.585Z,10.00
2023-04-13T03:01:42.348Z,10.00
2023-04-13T03:04:09.594Z,10.00
2023-04-13T03:06:44.284Z,10.00
2023-04-13T03:09:14.174Z,9.90
2023-04-13T03:11:43.356Z,9.90
2023-04-13T03:14:22.121Z,9.90
2023-04-13T03:16:54.570Z,9.90
2023-04-13T03:19:24.056Z,9.80
2023-04-13T03:21:53.316Z,9.80
2023-04-13T03:24:22.509Z,9.80
2023-04-13T03:26:53.464Z,9.80
2023-04-13T03:29:23.943Z,9.70
2023-04-13T03:31:51.534Z,9.70
2023-04-13T03:34:20.956Z,9.70
2023-04-13T03:36:50.745Z,9.70
2023-04-13T03:39:17.988Z,9.70
2023-04-13T03:41:47.692Z,9.60
2023-04-13T03:44:19.833Z,9.60
2023-04-13T03:46:47.087Z,9.60
2023-04-13T03:49:14.370Z,9.60
2023-04-13T03:51:41.511Z,9.50
2023-04-13T03:54:08.617Z,9.50
2023-04-13T03:56:40.548Z,9.50
2023-04-13T03:59:12.223Z,9.50
2023-04-13T04:01:41.993Z,9.50
2023-04-13T04:04:09.271Z,9.50
2023-04-13T04:06:39.218Z,9.50
2023-04-13T04:09:06.810Z,9.40
2023-04-13T04:11:33.972Z,9.40
2023-04-13T04:14:03.665Z,9.40
2023-04-13T04:16:33.099Z,9.40
2023-04-13T04:19:00.452Z,9.40
2023-04-13T04:21:36.193Z,9.40
2023-04-13T04:24:06.234Z,9.40
2023-04-13T04:26:33.464Z,9.40
2023-04-13T04:29:03.323Z,9.40
2023-04-13T04:31:43.838Z,9.30
2023-04-13T04:34:11.941Z,9.30
2023-04-13T04:36:41.973Z,9.30
2023-04-13T04:39:10.042Z,9.30
2023-04-13T04:41:37.887Z,9.30
2023-04-13T04:44:07.781Z,9.30
2023-04-13T04:46:38.803Z,9.30
2023-04-13T04:49:08.224Z,9.30
2023-04-13T04:51:36.550Z,9.30
2023-04-13T04:54:03.945Z,9.30
2023-04-13T04:56:33.371Z,9.30
2023-04-13T04:59:05.129Z,9.30
2023-04-13T05:01:34.913Z,9.30
2023-04-13T05:04:04.500Z,9.30
2023-04-13T05:06:34.425Z,9.30
2023-04-13T05:09:02.389Z,9.30
2023-04-13T05:11:34.104Z,9.30
2023-04-13T05:14:01.546Z,9.30
2023-04-13T05:16:30.545Z,9.40
2023-04-13T05:19:00.230Z,9.40
2023-04-13T05:21:34.390Z,9.40
2023-04-13T05:24:01.778Z,9.40
2023-04-13T05:26:30.783Z,9.40
2023-04-13T05:29:06.860Z,9.40
2023-04-13T05:31:36.581Z,9.50
2023-04-13T05:34:06.046Z,9.50
2023-04-13T05:36:33.498Z,9.50
2023-04-13T05:39:03.114Z,9.60
2023-04-13T05:41:30.406Z,9.60
2023-04-13T05:44:02.883Z,9.60
2023-04-13T05:46:35.081Z,9.70
2023-04-13T05:49:04.926Z,9.70
2023-04-13T05:51:33.106Z,9.70
2023-04-13T05:54:05.024Z,9.80
2023-04-13T05:56:34.361Z,9.80
2023-04-13T05:59:03.183Z,9.80
2023-04-13T06:01:33.658Z,9.80
2023-04-13T06:04:02.463Z,9.90
2023-04-13T06:06:30.347Z,9.90
2023-04-13T06:08:58.454Z,9.90
2023-04-13T06:11:27.934Z,10.00
2023-04-13T06:14:00.322Z,10.00
2023-04-13T06:16:29.836Z,10.10
2023-04-13T06:18:57.155Z,10.10
2023-04-13T06:21:27.746Z,10.10
2023-04-13T06:23:54.865Z,10.20
2023-04-13T06:26:25.417Z,10.20
2023-04-13T06:28:57.402Z,10.20
2023-04-13T06:31:27.815Z,10.20
2023-04-13T06:34:00.383Z,10.30
2023-04-13T06:36:29.761Z,10.30
2023-04-13T06:38:57.140Z,10.40
2023-04-13T06:41:27.177Z,10.40
2023-04-13T06:43:57.121Z,10.40
2023-04-13T06:46:27.790Z,10.40
2023-04-13T06:48:59.703Z,10.50
2023-04-13T06:51:27.186Z,10.50
2023-04-13T06:53:56.853Z,10.50
2023-04-13T06:56:24.246Z,10.50
2023-04-13T06:58:58.609Z,10.60
2023-04-13T07:01:29.630Z,10.60
2023-04-13T07:04:02.911Z,10.60
2023-04-13T07:06:34.962Z,10.60
2023-04-13T07:09:04.427Z,10.70
2023-04-13T07:11:33.779Z,10.70
2023-04-13T07:14:00.893Z,10.70
2023-04-13T07:16:28.177Z,10.80
2023-04-13T07:19:01.026Z,10.80
2023-04-13T07:21:28.530Z,10.90
2023-04-13T07:23:57.759Z,10.90
2023-04-13T07:26:24.938Z,10.90
2023-04-13T07:28:56.901Z,10.90
2023-04-13T07:31:28.848Z,10.90
2023-04-13T07:33:58.484Z,10.90
2023-04-13T07:36:26.482Z,10.90
2023-04-13T07:38:58.607Z,10.90
2023-04-13T07:41:30.624Z,11.00
2023-04-13T07:43:57.810Z,11.00
2023-04-13T07:46:27.511Z,11.00
2023-04-13T07:48:57.451Z,11.10
2023-04-13T07:51:26.854Z,11.20
2023-04-13T07:53:57.215Z,11.20
2023-04-13T07:56:24.331Z,11.30
2023-04-13T07:58:51.492Z,11.30
2023-04-13T08:01:22.081Z,11.30
2023-04-13T08:03:51.837Z,11.30
2023-04-13T08:06:22.229Z,11.30
2023-04-13T08:08:54.505Z,11.40
2023-04-13T08:11:27.082Z,11.30
2023-04-13T08:13:54.242Z,11.40
2023-04-13T08:16:23.481Z,11.40
2023-04-13T08:18:50.743Z,11.40
2023-04-13T08:21:19.027Z,11.40
2023-04-13T08:23:51.448Z,11.50
2023-04-13T08:26:21.761Z,11.50
2023-04-13T08:28:56.043Z,11.50
2023-04-13T08:31:23.307Z,11.50
2023-04-13T08:33:50.516Z,11.50
2023-04-13T08:36:17.844Z,11.60
2023-04-13T08:38:44.950Z,11.60
2023-04-13T08:41:12.251Z,11.60
2023-04-13T08:43:42.893Z,11.70
2023-04-13T08:46:19.384Z,11.60
2023-04-13T08:48:53.930Z,11.70
2023-04-13T08:51:28.754Z,11.70
2023-04-13T08:53:59.022Z,11.70
2023-04-13T08:56:42.060Z,11.80
2023-04-13T08:59:15.337Z,11.80
2023-04-13T09:01:45.405Z,11.80
2023-04-13T09:04:18.009Z,11.90
2023-04-13T09:06:52.262Z,11.80
2023-04-13T09:09:20.718Z,11.90
2023-04-13T09:11:53.025Z,11.90
2023-04-13T09:14:23.030Z,11.90
2023-04-13T09:16:50.938Z,12.00
2023-04-13T09:19:28.774Z,12.10
2023-04-13T09:21:58.732Z,12.10
2023-04-13T09:24:41.623Z,12.20
2023-04-13T09:27:26.489Z,12.20
2023-04-13T09:29:55.503Z,12.30
2023-04-13T09:32:24.213Z,12.30
2023-04-13T09:35:11.718Z,12.20
2023-04-13T09:37:43.433Z,12.20
2023-04-13T09:40:18.963Z,12.20
2023-04-13T09:42:58.849Z,12.20
2023-04-13T09:45:37.610Z,12.20
2023-04-13T09:48:21.250Z,12.30
2023-04-13T09:51:08.719Z,12.30
2023-04-13T09:53:46.680Z,12.40
2023-04-13T09:56:20.662Z,12.40
2023-04-13T09:58:48.179Z,12.50
2023-04-13T10:01:15.468Z,12.50
2023-04-13T10:03:47.956Z,12.50
2023-04-13T10:06:15.308Z,12.60
2023-04-13T10:08:43.057Z,12.60
2023-04-13T10:11:17.094Z,12.60
2023-04-13T10:13:57.162Z,12.60
2023-04-13T10:16:36.801Z,12.60
2023-04-13T10:19:11.480Z,12.60
2023-04-13T10:21:52.467Z,12.60
2023-04-13T10:24:21.288Z,12.60
2023-04-13T10:27:00.255Z,12.70
2023-04-13T10:29:31.038Z,12.80
2023-04-13T10:32:03.896Z,12.80
2023-04-13T10:34:38.423Z,12.90
2023-04-13T10:37:28.692Z,12.90
2023-04-13T10:40:06.474Z,12.90
2023-04-13T10:42:51.144Z,13.00
2023-04-13T10:45:35.980Z,13.00
2023-04-13T10:48:06.540Z,13.10
2023-04-13T10:50:33.666Z,13.20
2023-04-13T10:53:05.979Z,13.30
2023-04-13T10:55:36.713Z,13.30
2023-04-13T10:58:15.159Z,13.30
2023-04-13T11:00:47.094Z,13.30
2023-04-13T11:03:19.633Z,13.30
2023-04-13T11:06:02.545Z,13.30
2023-04-13T11:08:32.834Z,13.20
2023-04-13T11:10:59.916Z,13.20
2023-04-13T11:13:29.053Z,13.10
2023-04-13T11:16:04.097Z,13.10
2023-04-13T11:18:37.608Z,13.10
2023-04-13T11:21:08.513Z,13.00
2023-04-13T11:23:36.299Z,13.10
2023-04-13T11:26:06.448Z,13.10
2023-04-13T11:28:41.736Z,13.20
2023-04-13T11:31:09.385Z,13.20
2023-04-13T11:33:41.103Z,13.10
2023-04-13T11:36:11.927Z,13.20
2023-04-13T11:38:40.878Z,13.20
2023-04-13T11:41:17.138Z,13.20
2023-04-13T11:43:48.872Z,13.20
2023-04-13T11:46:25.315Z,13.20
2023-04-13T11:48:53.264Z,13.40
2023-04-13T11:51:21.899Z,13.40
2023-04-13T11:53:53.196Z,13.40
2023-04-13T11:56:23.289Z,13.40
2023-04-13T11:58:53.414Z,13.40
2023-04-13T12:01:27.166Z,13.40
2023-04-13T12:04:14.584Z,13.50
2023-04-13T12:06:47.681Z,13.50
2023-04-13T12:09:20.359Z,13.50
2023-04-13T12:12:12.075Z,13.50
2023-04-13T12:19:51.757Z,13.40
2023-04-13T12:22:22.605Z,13.50
2023-04-13T12:24:53.635Z,13.40
2023-04-13T12:27:20.967Z,13.30
2023-04-13T12:29:49.025Z,13.40
2023-04-13T12:32:20.972Z,13.40
2023-04-13T12:34:48.986Z,13.40
2023-04-13T12:37:18.643Z,13.30
2023-04-13T12:39:48.041Z,13.30
2023-04-13T12:42:17.626Z,13.30
2023-04-13T12:44:44.822Z,13.30
2023-04-13T12:47:16.617Z,13.30
2023-04-13T12:49:48.734Z,13.20
2023-04-13T12:52:18.084Z,13.20
2023-04-13T12:54:45.905Z,13.30
2023-04-13T12:57:17.111Z,13.20
2023-04-13T12:59:44.664Z,13.20
2023-04-13T13:02:11.989Z,13.20
2023-04-13T13:04:41.650Z,13.30
2023-04-13T13:07:11.110Z,13.40
2023-04-13T13:09:38.332Z,13.30
2023-04-13T13:12:08.595Z,13.30
2023-04-13T13:14:37.963Z,13.40
2023-04-13T13:17:07.621Z,13.40
2023-04-13T13:19:37.113Z,13.40
2023-04-13T13:22:04.201Z,13.50
2023-04-13T13:24:39.098Z,13.50
2023-04-13T13:29:42.096Z,13.60
2023-04-13T13:32:12.101Z,13.60
2023-04-13T13:34:39.265Z,13.70
2023-04-13T13:37:09.046Z,13.70
2023-04-13T13:39:38.730Z,13.70
2023-04-13T13:42:06.025Z,13.70
2023-04-13T13:44:35.043Z,13.60
2023-04-13T13:47:06.549Z,13.70
2023-04-13T13:49:33.750Z,13.80
2023-04-13T13:52:03.348Z,13.80
2023-04-13T13:54:32.967Z,13.80
2023-04-13T13:57:00.097Z,13.80
2023-04-13T13:59:27.764Z,13.80
2023-04-13T14:01:55.077Z,13.90
2023-04-13T14:04:26.925Z,13.90
2023-04-13T14:06:54.065Z,14.00
2023-04-13T14:09:23.754Z,14.00
2023-04-13T14:11:54.178Z,14.00
2023-04-13T14:14:23.727Z,14.10
2023-04-13T14:16:50.799Z,14.10
2023-04-13T14:19:18.745Z,14.10
2023-04-13T14:21:46.061Z,14.10
2023-04-13T14:24:13.122Z,14.20
2023-04-13T14:26:45.076Z,14.20
2023-04-13T14:29:14.506Z,14.30
2023-04-13T14:31:46.903Z,14.30
2023-04-13T14:34:14.007Z,14.40
2023-04-13T14:36:46.635Z,14.50
2023-04-13T14:39:18.059Z,14.50
2023-04-13T14:41:50.269Z,14.60
2023-04-13T14:44:17.382Z,14.60
2023-04-13T14:46:44.712Z,14.60
2023-04-13T14:49:12.233Z,14.70
2023-04-13T14:51:40.217Z,14.80
2023-04-13T14:54:08.530Z,14.80
2023-04-13T14:56:35.874Z,14.80
2023-04-13T14:59:03.542Z,14.80
2023-04-13T15:01:31.815Z,14.80
2023-04-13T15:04:04.590Z,14.70
2023-04-13T15:06:34.076Z,14.70
2023-04-13T15:09:04.411Z,14.70
2023-04-13T15:11:31.672Z,14.70
2023-04-13T15:14:01.680Z,14.70
2023-04-13T15:16:29.001Z,14.80
2023-04-13T15:18:56.198Z,14.70
2023-04-13T15:21:27.144Z,14.70
2023-04-13T15:23:54.293Z,14.70
2023-04-13T15:26:23.821Z,14.70
2023-04-13T15:28:51.077Z,14.70
2023-04-13T15:31:21.244Z,14.70
2023-04-13T15:33:48.412Z,14.80
2023-04-13T15:36:16.448Z,14.80
2023-04-13T15:38:43.641Z,14.70
2023-04-13T15:41:15.342Z,14.80
2023-04-13T15:43:47.470Z,14.80
2023-04-13T15:46:17.666Z,14.80
2023-04-13T15:48:49.420Z,14.80
2023-04-13T15:51:18.897Z,14.80
2023-04-13T15:53:46.109Z,14.70
2023-04-13T15:56:17.863Z,14.70
2023-04-13T15:58:44.948Z,14.70
2023-04-13T16:01:13.197Z,14.60
2023-04-13T16:03:45.344Z,14.60
2023-04-13T16:06:20.258Z,14.60
2023-04-13T16:08:47.376Z,14.70
2023-04-13T16:11:14.501Z,14.70
2023-04-13T16:13:49.420Z,14.70
2023-04-13T16:16:18.329Z,14.70
2023-04-13T16:18:45.616Z,14.70
2023-04-13T16:21:13.136Z,14.70
2023-04-13T16:23:45.848Z,14.70
2023-04-13T16:26:15.172Z,14.70
2023-04-13T16:28:47.141Z,14.70
2023-04-13T16:31:17.019Z,14.70
2023-04-13T16:33:48.801Z,14.70
2023-04-13T16:36:15.973Z,14.70
2023-04-13T16:38:46.240Z,14.70
2023-04-13T16:41:13.509Z,14.60
2023-04-13T16:43:43.325Z,14.60
2023-04-13T16:46:15.068Z,14.60
2023-04-13T16:48:44.704Z,14.50
2023-04-13T16:51:14.098Z,14.50
2023-04-13T16:53:44.111Z,14.40
2023-04-13T16:56:16.601Z,14.30
2023-04-13T16:58:44.352Z,14.30
2023-04-13T17:01:14.537Z,14.20
2023-04-13T17:03:44.050Z,14.20
2023-04-13T17:06:21.114Z,14.20
2023-04-13T17:08:50.417Z,14.20
2023-04-13T17:11:26.263Z,14.20
2023-04-13T17:13:55.958Z,14.20
2023-04-13T17:16:24.519Z,14.20
2023-04-13T17:18:53.770Z,14.20
2023-04-13T17:21:22.978Z,14.20
2023-04-13T17:23:54.737Z,14.20
2023-04-13T17:26:24.360Z,14.20
2023-04-13T17:28:51.498Z,14.20
2023-04-13T17:31:21.996Z,14.30
2023-04-13T17:33:50.917Z,14.30
2023-04-13T17:36:18.443Z,14.30
2023-04-13T17:38:47.649Z,14.40
2023-04-13T17:41:14.890Z,14.40
2023-04-13T17:43:42.020Z,14.30
2023-04-13T17:46:09.210Z,14.40
2023-04-13T17:48:39.379Z,14.30
2023-04-13T17:51:13.237Z,14.30
2023-04-13T17:53:42.528Z,14.30
2023-04-13T17:56:18.071Z,14.30
2023-04-13T17:58:47.716Z,14.20
2023-04-13T18:01:14.934Z,14.20
2023-04-13T18:03:42.600Z,14.10
2023-04-13T18:06:10.069Z,14.00
2023-04-13T18:08:37.213Z,14.00
2023-04-13T18:11:06.573Z,13.90
2023-04-13T18:13:37.887Z,13.90
2023-04-13T18:16:07.715Z,13.90
2023-04-13T18:18:37.062Z,13.80
2023-04-13T18:21:06.653Z,13.70
2023-04-13T18:23:33.840Z,13.70
2023-04-13T18:26:02.129Z,13.60
2023-04-13T18:28:29.845Z,13.60
2023-04-13T18:31:00.729Z,13.50
2023-04-13T18:33:31.795Z,13.40
2023-04-13T18:36:04.004Z,13.40
2023-04-13T18:38:38.705Z,13.30
2023-04-13T18:41:06.256Z,13.30
2023-04-13T18:43:33.396Z,13.20
2023-04-13T18:46:03.106Z,13.20
2023-04-13T18:48:31.572Z,13.20
2023-04-13T18:51:01.397Z,13.10
2023-04-13T18:53:33.102Z,13.00
2023-04-13T18:56:04.848Z,13.00
2023-04-13T18:58:34.493Z,12.90
2023-04-13T19:01:03.705Z,12.90
2023-04-13T19:03:33.433Z,12.80
2023-04-13T19:06:02.865Z,12.80
2023-04-13T19:08:32.290Z,12.70
2023-04-13T19:11:07.246Z,12.70
2023-04-13T19:13:34.367Z,12.60
2023-04-13T19:16:06.085Z,12.60
2023-04-13T19:18:35.609Z,12.50
2023-04-13T19:21:07.462Z,12.40
2023-04-13T19:23:38.869Z,12.40
2023-04-13T19:26:09.525Z,12.30
2023-04-13T19:28:38.772Z,12.30
2023-04-13T19:31:06.566Z,12.20
2023-04-13T19:33:34.873Z,12.10
2023-04-13T19:36:06.377Z,12.10
2023-04-13T19:38:33.535Z,12.00
2023-04-13T19:41:00.706Z,12.00
2023-04-13T19:43:28.175Z,12.00
2023-04-13T19:45:55.932Z,11.90
2023-04-13T19:48:27.953Z,11.90
2023-04-13T19:50:55.096Z,11.80
2023-04-13T19:53:26.883Z,11.80
2023-04-13T19:55:54.139Z,11.80
2023-04-13T19:58:26.591Z,11.80
2023-04-13T20:00:59.141Z,11.70
2023-04-13T20:03:28.924Z,11.70
2023-04-13T20:06:02.815Z,11.70
2023-04-13T20:08:32.347Z,11.60
2023-04-13T20:11:04.198Z,11.60
2023-04-13T20:13:31.305Z,11.60
2023-04-13T20:16:01.211Z,11.60
2023-04-13T20:18:28.383Z,11.60
2023-04-13T20:20:55.526Z,11.50
2023-04-13T20:23:27.211Z,11.50
2023-04-13T20:25:56.644Z,11.40
2023-04-13T20:28:32.801Z,11.40
2023-04-13T20:30:59.972Z,11.30
2023-04-13T20:33:27.293Z,11.30
2023-04-13T20:36:03.302Z,11.20
2023-04-13T20:38:35.148Z,11.20
2023-04-13T20:41:07.504Z,11.20
2023-04-13T20:43:34.605Z,11.10
2023-04-13T20:46:04.189Z,11.10
2023-04-13T20:51:12.574Z,11.10
2023-04-13T20:53:42.219Z,11.10
2023-04-13T20:56:12.680Z,11.00
2023-04-13T20:58:42.417Z,11.00
2023-04-13T21:01:10.081Z,11.00
2023-04-13T21:03:38.643Z,10.90
2023-04-13T21:06:10.697Z,10.90
2023-04-13T21:08:39.908Z,10.90
2023-04-13T21:11:07.027Z,10.80
2023-04-13T21:13:36.841Z,10.80
2023-04-13T21:16:04.301Z,10.80
2023-04-13T21:18:36.973Z,10.70
2023-04-13T21:21:06.763Z,10.70
2023-04-13T21:23:37.453Z,10.70
2023-04-13T21:26:04.911Z,10.60
2023-04-13T21:28:32.038Z,10.60
2023-04-13T21:31:01.712Z,10.60
2023-04-13T21:33:28.825Z,10.50
2023-04-13T21:35:58.121Z,10.50
2023-04-13T21:38:27.777Z,10.50
2023-04-13T21:40:54.804Z,10.40
2023-04-13T21:43:26.910Z,10.40
2023-04-13T21:45:58.564Z,10.40
2023-04-13T21:48:25.885Z,10.40
2023-04-13T21:50:57.807Z,10.40
2023-04-13T21:53:26.977Z,10.30
2023-04-13T21:55:56.847Z,10.30
2023-04-13T21:58:26.055Z,10.30
2023-04-13T22:00:53.154Z,10.30
2023-04-13T22:03:22.844Z,10.30
2023-04-13T22:05:50.089Z,10.20
2023-04-13T22:08:20.058Z,10.20
2023-04-13T22:10:47.842Z,10.20
2023-04-13T22:13:17.427Z,10.20
2023-04-13T22:15:44.604Z,10.20
2023-04-13T22:18:12.223Z,10.20
2023-04-13T22:20:39.451Z,10.10
2023-04-13T22:23:06.615Z,10.10
2023-04-13T22:25:33.837Z,10.10
2023-04-13T22:28:03.420Z,10.10
2023-04-13T22:30:30.837Z,10.10
2023-04-13T22:33:00.263Z,10.00
2023-04-13T22:35:27.511Z,10.00
2023-04-13T22:37:54.607Z,10.00
2023-04-13T22:40:23.763Z,10.00
2023-04-13T22:42:57.680Z,10.00
2023-04-13T22:45:26.915Z,9.90
2023-04-13T22:47:57.135Z,9.90
2023-04-13T22:50:24.380Z,9.90
2023-04-13T22:52:53.299Z,9.80
2023-04-13T22:55:23.200Z,9.80
2023-04-13T22:57:52.516Z,9.80
2023-04-13T23:00:21.976Z,9.80
2023-04-13T23:02:55.791Z,9.70
2023-04-13T23:05:26.052Z,9.70
2023-04-13T23:07:57.497Z,9.70
2023-04-13T23:10:25.034Z,9.60
2023-04-13T23:12:56.754Z,9.60
2023-04-13T23:15:26.126Z,9.60
2023-04-13T23:18:02.522Z,9.60
2023-04-13T23:20:30.315Z,9.60
2023-04-13T23:23:01.986Z,9.50
2023-04-13T23:25:34.174Z,9.50
2023-04-13T23:28:03.424Z,9.50
2023-04-13T23:30:32.645Z,9.50
2023-04-13T23:32:59.831Z,9.40
2023-04-13T23:35:26.958Z,9.40
2023-04-13T23:37:54.116Z,9.40
2023-04-13T23:40:25.867Z,9.40
2023-04-13T23:42:55.603Z,9.40
2023-04-13T23:45:25.181Z,9.40
2023-04-13T23:47:54.532Z,9.40
2023-04-13T23:50:22.616Z,9.40
2023-04-13T23:52:51.849Z,9.40
2023-04-13T23:55:21.451Z,9.30
2023-04-13T23:57:50.908Z,9.30
